Schubert, Missouri
Current Conditions -  °F | °C
As of 7:53 PM on Tuesday 21 Oct 2014 (Local Time) from KJEF Reporting Station
Clear Clear  
Wind Chill: 63°   Ceiling: Unl
Heat Index: 63°   Visibility: 10mi
Dew Point: 44°   Wind: 9mph
Humidity: 50%   Direction: 60°ENE
Pressure: 30.12"   Gusts: NA
Location:  38.5003°N, 92.1516°W
Report Text: KJEF 220053Z 06008KT 10SM CLR 17/07 A3012 RMK AO2 SLP190 T01720067
Loading
Personal Weather Stations






























Interactive Weather Map
Tropical Storm Tracking
New forecast layout! Learn more

10-Day Weather Forecast

Advertisements
Track Severe Weather on mobile